createdAt,value
2019-02-28T00:01:52.456Z,9.20
2019-02-28T00:04:20.493Z,9.10
2019-02-28T00:06:48.600Z,9.20
2019-02-28T00:09:16.617Z,9.20
2019-02-28T00:11:44.645Z,9.30
2019-02-28T00:14:12.694Z,9.30
2019-02-28T00:16:40.647Z,9.30
2019-02-28T00:19:10.897Z,9.30
2019-02-28T00:21:40.646Z,9.30
2019-02-28T00:24:09.454Z,9.30
2019-02-28T00:26:37.577Z,9.30
2019-02-28T00:29:05.735Z,9.40
2019-02-28T00:31:33.666Z,9.40
2019-02-28T00:34:04.555Z,9.40
2019-02-28T00:36:31.925Z,9.40
2019-02-28T00:39:00.766Z,9.40
2019-02-28T00:41:28.810Z,9.40
2019-02-28T00:43:57.886Z,9.40
2019-02-28T00:46:25.983Z,9.30
2019-02-28T00:48:54.517Z,9.30
2019-02-28T00:51:23.353Z,9.20
2019-02-28T00:53:51.426Z,9.10
2019-02-28T00:56:19.550Z,9.10
2019-02-28T00:58:47.603Z,9.00
2019-02-28T01:01:15.736Z,9.00
2019-02-28T01:03:43.878Z,8.90
2019-02-28T01:06:12.058Z,8.90
2019-02-28T01:08:40.303Z,8.90
2019-02-28T01:11:10.432Z,8.80
2019-02-28T01:13:38.081Z,8.80
2019-02-28T01:16:06.370Z,8.70
2019-02-28T01:18:35.370Z,8.80
2019-02-28T01:21:04.137Z,8.80
2019-02-28T01:23:32.285Z,8.90
2019-02-28T01:26:00.886Z,8.80
2019-02-28T01:28:29.168Z,8.80
2019-02-28T01:30:57.821Z,8.80
2019-02-28T01:33:29.337Z,8.70
2019-02-28T01:35:57.888Z,8.70
2019-02-28T01:38:26.314Z,8.80
2019-02-28T01:40:55.047Z,8.80
2019-02-28T01:43:28.371Z,8.90
2019-02-28T01:45:54.306Z,8.90
2019-02-28T01:48:23.670Z,9.00
2019-02-28T01:50:55.673Z,9.10
2019-02-28T01:53:23.976Z,9.10
2019-02-28T01:55:52.337Z,9.20
2019-02-28T01:58:20.627Z,9.30
2019-02-28T02:00:48.912Z,9.40
2019-02-28T02:03:17.357Z,9.50
2019-02-28T02:05:48.281Z,9.40
2019-02-28T02:08:15.903Z,9.50
2019-02-28T02:10:44.497Z,9.70
2019-02-28T02:13:12.657Z,9.80
2019-02-28T02:15:40.843Z,9.80
2019-02-28T02:18:10.017Z,9.90
2019-02-28T02:20:38.818Z,10.00
2019-02-28T02:23:07.001Z,10.00
2019-02-28T02:25:37.483Z,10.10
2019-02-28T02:28:05.874Z,10.10
2019-02-28T02:30:34.247Z,10.10
2019-02-28T02:33:02.313Z,10.10
2019-02-28T02:35:30.425Z,10.10
2019-02-28T02:38:03.408Z,10.10
2019-02-28T02:40:28.339Z,10.00
2019-02-28T02:42:58.339Z,10.00
2019-02-28T02:45:26.303Z,9.90
2019-02-28T02:47:54.450Z,10.10
2019-02-28T02:50:23.721Z,10.10
2019-02-28T02:52:52.421Z,10.10
2019-02-28T02:55:20.342Z,10.00
2019-02-28T02:57:51.694Z,10.00
2019-02-28T03:00:19.361Z,9.90
2019-02-28T03:02:47.875Z,10.00
2019-02-28T03:05:15.895Z,9.90
2019-02-28T03:07:44.061Z,9.90
2019-02-28T03:10:17.578Z,9.90
2019-02-28T03:12:43.391Z,9.70
2019-02-28T03:15:12.845Z,9.70
2019-02-28T03:17:46.530Z,9.70
2019-02-28T03:20:11.050Z,9.70
2019-02-28T03:22:39.446Z,9.70
2019-02-28T03:25:08.379Z,9.70
2019-02-28T03:27:36.386Z,9.70
2019-02-28T03:30:05.407Z,9.70
2019-02-28T03:32:40.555Z,9.70
2019-02-28T03:35:04.323Z,9.70
2019-02-28T03:37:34.398Z,9.60
2019-02-28T03:40:05.149Z,9.60
2019-02-28T03:42:33.714Z,9.60
2019-02-28T03:45:02.180Z,9.60
2019-02-28T03:47:30.871Z,9.60
2019-02-28T03:49:59.445Z,9.60
2019-02-28T03:52:27.377Z,9.50
2019-02-28T03:54:55.659Z,9.40
2019-02-28T03:57:27.982Z,9.40
2019-02-28T03:59:56.750Z,9.30
2019-02-28T04:02:24.521Z,9.40
2019-02-28T04:04:52.738Z,9.30
2019-02-28T04:07:20.869Z,9.30
2019-02-28T04:09:48.792Z,9.30
2019-02-28T04:12:16.931Z,9.40
2019-02-28T04:14:45.007Z,9.30
2019-02-28T04:17:13.050Z,9.30
2019-02-28T04:19:41.064Z,9.30
2019-02-28T04:22:09.718Z,9.30
2019-02-28T04:24:38.421Z,9.30
2019-02-28T04:27:07.755Z,9.30
2019-02-28T04:29:36.516Z,9.20
2019-02-28T04:32:04.778Z,9.30
2019-02-28T04:34:33.234Z,9.10
2019-02-28T04:37:01.645Z,9.20
2019-02-28T04:39:29.825Z,9.20
2019-02-28T04:41:57.997Z,9.10
2019-02-28T04:44:26.699Z,9.10
2019-02-28T04:46:55.112Z,9.20
2019-02-28T04:49:23.291Z,9.10
2019-02-28T04:51:51.430Z,9.20
2019-02-28T04:54:19.365Z,9.10
2019-02-28T04:56:47.398Z,9.00
2019-02-28T04:59:15.589Z,9.00
2019-02-28T05:01:45.297Z,9.00
2019-02-28T05:04:13.689Z,9.00
2019-02-28T05:06:41.761Z,9.10
2019-02-28T05:09:10.667Z,9.00
2019-02-28T05:11:39.716Z,8.90
2019-02-28T05:14:07.745Z,8.90
2019-02-28T05:16:35.817Z,8.80
2019-02-28T05:19:03.847Z,8.80
2019-02-28T05:21:31.780Z,8.80
2019-02-28T05:23:59.837Z,8.80
2019-02-28T05:26:27.992Z,8.80
2019-02-28T05:28:55.950Z,8.80
2019-02-28T05:31:24.213Z,8.80
2019-02-28T05:33:54.098Z,8.90
2019-02-28T05:36:22.138Z,8.70
2019-02-28T05:38:50.205Z,8.70
2019-02-28T05:41:18.396Z,8.80
2019-02-28T05:43:46.647Z,8.70
2019-02-28T05:46:15.727Z,8.80
2019-02-28T05:48:43.786Z,8.80
2019-02-28T05:51:12.033Z,8.80
2019-02-28T05:53:41.373Z,8.70
2019-02-28T05:56:10.267Z,8.70
2019-02-28T05:58:38.330Z,8.60
2019-02-28T06:01:08.756Z,8.70
2019-02-28T06:03:36.311Z,8.70
2019-02-28T06:06:08.062Z,8.80
2019-02-28T06:08:39.143Z,8.80
2019-02-28T06:11:06.253Z,8.80
2019-02-28T06:13:34.194Z,8.70
2019-02-28T06:16:02.802Z,8.80
2019-02-28T06:18:33.367Z,8.70
2019-02-28T06:21:01.335Z,8.70
2019-02-28T06:23:29.569Z,8.70
2019-02-28T06:25:59.254Z,8.70
2019-02-28T06:28:30.946Z,8.60
2019-02-28T06:30:57.742Z,8.70
2019-02-28T06:33:25.753Z,8.70
2019-02-28T06:35:54.554Z,8.60
2019-02-28T06:38:22.705Z,8.70
2019-02-28T06:40:53.564Z,8.70
2019-02-28T06:43:25.255Z,8.70
2019-02-28T06:45:52.561Z,8.80
2019-02-28T06:48:25.794Z,8.80
2019-02-28T06:50:50.533Z,8.70
2019-02-28T06:53:19.060Z,8.80
2019-02-28T06:55:47.632Z,8.80
2019-02-28T06:58:16.906Z,8.80
2019-02-28T07:00:47.331Z,8.80
2019-02-28T07:03:15.307Z,8.90
2019-02-28T07:05:43.705Z,8.90
2019-02-28T07:08:12.011Z,9.10
2019-02-28T07:10:41.551Z,9.10
2019-02-28T07:13:11.838Z,9.10
2019-02-28T07:15:39.969Z,9.20
2019-02-28T07:18:08.516Z,9.30
2019-02-28T07:20:37.078Z,9.20
2019-02-28T07:23:05.049Z,9.20
2019-02-28T07:25:33.686Z,9.30
2019-02-28T07:28:02.545Z,9.40
2019-02-28T07:30:30.726Z,9.40
2019-02-28T07:32:59.163Z,9.50
2019-02-28T07:35:32.842Z,9.40
2019-02-28T07:37:59.189Z,9.40
2019-02-28T07:40:27.554Z,9.50
2019-02-28T07:42:55.746Z,9.50
2019-02-28T07:45:24.241Z,9.50
2019-02-28T07:47:52.979Z,9.50
2019-02-28T07:50:21.344Z,9.50
2019-02-28T07:52:49.429Z,9.60
2019-02-28T07:55:17.925Z,9.70
2019-02-28T07:57:50.992Z,9.70
2019-02-28T08:00:18.495Z,9.80
2019-02-28T08:02:49.036Z,9.80
2019-02-28T08:05:17.180Z,9.90
2019-02-28T08:07:50.517Z,10.00
2019-02-28T08:10:17.630Z,10.10
2019-02-28T08:12:46.011Z,10.20
2019-02-28T08:15:20.949Z,10.30
2019-02-28T08:17:47.193Z,10.40
2019-02-28T08:20:18.437Z,10.40
2019-02-28T08:22:46.763Z,10.80
2019-02-28T08:25:15.358Z,11.40
2019-02-28T08:27:44.129Z,11.90
2019-02-28T08:30:16.306Z,12.30
2019-02-28T08:32:47.098Z,12.60
2019-02-28T08:35:15.948Z,12.90
2019-02-28T08:37:47.482Z,13.30
2019-02-28T08:40:16.393Z,13.60
2019-02-28T08:42:49.990Z,13.80
2019-02-28T08:45:21.059Z,13.70
2019-02-28T08:47:48.435Z,13.60
2019-02-28T08:50:20.551Z,13.50
2019-02-28T08:52:53.702Z,13.50
2019-02-28T08:55:28.154Z,13.80
2019-02-28T08:57:55.024Z,14.10
2019-02-28T09:00:21.895Z,14.60
2019-02-28T09:02:54.400Z,15.30
2019-02-28T09:05:26.093Z,15.70
2019-02-28T09:07:52.546Z,16.00
2019-02-28T09:10:20.926Z,16.10
2019-02-28T09:12:49.045Z,16.30
2019-02-28T09:15:19.645Z,16.10
2019-02-28T09:17:47.784Z,16.30
2019-02-28T09:20:16.046Z,16.30
2019-02-28T09:22:44.165Z,16.30
2019-02-28T09:25:13.465Z,15.90
2019-02-28T09:27:47.467Z,16.10
2019-02-28T09:30:26.529Z,16.20
2019-02-28T09:32:55.539Z,16.30
2019-02-28T09:35:26.942Z,16.30
2019-02-28T09:37:55.046Z,16.70
2019-02-28T09:40:25.788Z,16.90
2019-02-28T09:42:53.522Z,17.30
2019-02-28T09:45:23.375Z,17.50
2019-02-28T09:47:51.604Z,17.70
2019-02-28T09:50:22.566Z,17.80
2019-02-28T09:52:49.781Z,17.90
2019-02-28T09:55:18.033Z,17.60
2019-02-28T09:57:46.151Z,17.50
2019-02-28T10:00:17.267Z,17.70
2019-02-28T10:02:45.421Z,17.30
2019-02-28T10:05:13.899Z,17.00
2019-02-28T10:07:42.038Z,17.00
2019-02-28T10:10:13.823Z,17.30
2019-02-28T10:12:43.727Z,17.40
2019-02-28T10:15:14.025Z,17.30
2019-02-28T10:17:42.331Z,17.10
2019-02-28T10:20:16.440Z,17.30
2019-02-28T10:22:48.111Z,17.50
2019-02-28T10:25:16.377Z,17.50
2019-02-28T10:27:44.769Z,17.40
2019-02-28T10:30:15.920Z,17.40
2019-02-28T10:32:49.013Z,17.40
2019-02-28T10:35:18.540Z,17.30
2019-02-28T10:37:47.291Z,17.20
2019-02-28T10:40:18.636Z,17.30
2019-02-28T10:42:50.478Z,17.40
2019-02-28T10:45:19.616Z,17.50
2019-02-28T10:47:47.801Z,17.60
2019-02-28T10:50:18.059Z,17.70
2019-02-28T10:52:46.585Z,17.80
2019-02-28T10:55:19.417Z,18.00
2019-02-28T10:57:47.221Z,18.00
2019-02-28T11:00:20.114Z,18.00
2019-02-28T11:02:50.467Z,18.30
2019-02-28T11:05:23.898Z,18.30
2019-02-28T11:07:52.593Z,18.30
2019-02-28T11:10:21.097Z,18.30
2019-02-28T11:12:50.040Z,18.30
2019-02-28T11:15:23.725Z,18.10
2019-02-28T11:17:52.721Z,18.10
2019-02-28T11:20:22.554Z,18.20
2019-02-28T11:22:51.229Z,18.10
2019-02-28T11:25:25.234Z,17.50
2019-02-28T11:27:54.787Z,17.50
2019-02-28T11:30:23.550Z,17.40
2019-02-28T11:32:52.809Z,17.40
2019-02-28T11:35:23.163Z,17.30
2019-02-28T11:37:56.418Z,17.10
2019-02-28T11:40:26.125Z,16.80
2019-02-28T11:42:54.648Z,16.60
2019-02-28T11:45:25.577Z,16.50
2019-02-28T11:47:58.921Z,16.50
2019-02-28T11:50:28.597Z,16.50
2019-02-28T11:53:03.236Z,16.30
2019-02-28T11:55:27.906Z,16.10
2019-02-28T11:57:56.670Z,16.10
2019-02-28T12:00:29.349Z,16.20
2019-02-28T12:03:00.811Z,16.10
2019-02-28T12:05:27.877Z,16.10
2019-02-28T12:07:56.198Z,15.90
2019-02-28T12:10:26.992Z,15.80
2019-02-28T12:12:56.466Z,15.90
2019-02-28T12:15:25.953Z,16.00
2019-02-28T12:17:54.336Z,16.20
2019-02-28T12:20:26.551Z,16.60
2019-02-28T12:22:55.342Z,17.00
2019-02-28T12:25:24.233Z,17.50
2019-02-28T12:27:52.507Z,17.90
2019-02-28T12:30:25.160Z,18.20
2019-02-28T12:32:56.685Z,18.20
2019-02-28T12:35:25.333Z,17.90
2019-02-28T12:37:54.929Z,17.60
2019-02-28T12:40:25.126Z,17.50
2019-02-28T12:42:53.581Z,17.60
2019-02-28T12:45:25.425Z,17.70
2019-02-28T12:47:53.717Z,17.90
2019-02-28T12:50:22.305Z,18.00
2019-02-28T12:52:50.403Z,18.10
2019-02-28T12:55:18.866Z,18.20
2019-02-28T12:57:48.559Z,18.50
2019-02-28T13:00:19.926Z,18.60
2019-02-28T13:02:49.886Z,18.40
2019-02-28T13:05:18.043Z,18.40
2019-02-28T13:07:50.320Z,18.30
2019-02-28T13:10:18.830Z,18.30
2019-02-28T13:12:48.810Z,18.30
2019-02-28T13:15:17.103Z,18.00
2019-02-28T13:17:45.491Z,17.90
2019-02-28T13:20:16.620Z,17.90
2019-02-28T13:22:45.036Z,18.00
2019-02-28T13:25:13.455Z,18.00
2019-02-28T13:27:45.196Z,18.00
2019-02-28T13:30:20.123Z,17.90
2019-02-28T13:32:48.581Z,17.90
2019-02-28T13:35:18.945Z,17.90
2019-02-28T13:37:47.154Z,17.90
2019-02-28T13:40:15.336Z,17.80
2019-02-28T13:42:46.974Z,17.60
2019-02-28T13:45:22.236Z,17.60
2019-02-28T13:47:47.618Z,17.50
2019-02-28T13:50:18.063Z,17.50
2019-02-28T13:52:52.301Z,17.50
2019-02-28T13:55:20.245Z,17.20
2019-02-28T13:57:48.706Z,17.10
2019-02-28T14:00:22.014Z,16.90
2019-02-28T14:02:57.277Z,16.80
2019-02-28T14:05:25.837Z,16.80
2019-02-28T14:07:54.473Z,16.90
2019-02-28T14:10:22.910Z,17.00
2019-02-28T14:12:56.873Z,17.00
2019-02-28T14:15:25.828Z,17.20
2019-02-28T14:17:53.986Z,17.40
2019-02-28T14:20:24.370Z,17.20
2019-02-28T14:22:52.326Z,17.30
2019-02-28T14:25:22.127Z,17.40
2019-02-28T14:27:50.306Z,17.30
2019-02-28T14:30:22.835Z,17.00
2019-02-28T14:32:50.392Z,16.80
2019-02-28T14:35:22.839Z,16.80
2019-02-28T14:37:51.824Z,16.70
2019-02-28T14:40:20.911Z,16.60
2019-02-28T14:42:49.241Z,16.00
2019-02-28T14:45:18.057Z,15.50
2019-02-28T14:47:56.839Z,15.10
2019-02-28T14:50:21.194Z,14.70
2019-02-28T14:52:50.374Z,14.30
2019-02-28T14:55:18.558Z,13.90
2019-02-28T14:57:48.858Z,13.80
2019-02-28T15:00:18.943Z,13.70
2019-02-28T15:02:47.087Z,13.50
2019-02-28T15:05:16.616Z,13.40
2019-02-28T15:07:45.643Z,13.30
2019-02-28T15:10:18.462Z,13.20
2019-02-28T15:12:46.660Z,12.90
2019-02-28T15:15:18.017Z,12.80
2019-02-28T15:17:46.218Z,12.70
2019-02-28T15:20:14.920Z,12.60
2019-02-28T15:22:43.973Z,12.70
2019-02-28T15:25:15.321Z,12.70
2019-02-28T15:27:43.418Z,12.90
2019-02-28T15:30:14.437Z,12.80
2019-02-28T15:32:45.399Z,13.00
2019-02-28T15:35:15.296Z,12.90
2019-02-28T15:37:44.461Z,12.80
2019-02-28T15:40:16.364Z,12.80
2019-02-28T15:42:47.752Z,12.80
2019-02-28T15:45:16.243Z,12.80
2019-02-28T15:47:45.137Z,12.70
2019-02-28T15:50:16.399Z,12.70
2019-02-28T15:52:45.207Z,12.60
2019-02-28T15:55:14.283Z,12.60
2019-02-28T15:57:42.680Z,12.60
2019-02-28T16:00:14.826Z,12.50
2019-02-28T16:02:43.270Z,12.60
2019-02-28T16:05:12.629Z,12.50
2019-02-28T16:07:41.057Z,12.60
2019-02-28T16:10:13.566Z,12.60
2019-02-28T16:12:42.104Z,12.60
2019-02-28T16:15:11.913Z,12.60
2019-02-28T16:17:41.259Z,12.60
2019-02-28T16:20:10.389Z,12.60
2019-02-28T16:22:38.961Z,12.60
2019-02-28T16:25:11.487Z,12.60
2019-02-28T16:27:40.258Z,12.60
2019-02-28T16:30:09.885Z,12.70
2019-02-28T16:32:38.178Z,12.70
2019-02-28T16:35:06.605Z,12.70
2019-02-28T16:37:35.843Z,12.70
2019-02-28T16:40:05.790Z,12.60
2019-02-28T16:42:34.699Z,12.70
2019-02-28T16:45:06.093Z,12.80
2019-02-28T16:47:34.863Z,12.60
2019-02-28T16:50:03.755Z,12.60
2019-02-28T16:52:32.543Z,12.70
2019-02-28T16:55:00.957Z,12.70
2019-02-28T16:57:29.364Z,12.80
2019-02-28T16:59:58.653Z,12.70
2019-02-28T17:02:29.339Z,12.70
2019-02-28T17:04:57.458Z,12.60
2019-02-28T17:07:25.759Z,12.60
2019-02-28T17:09:53.934Z,12.70
2019-02-28T17:12:48.627Z,12.60
2019-02-28T17:15:24.149Z,12.80
2019-02-28T17:17:56.318Z,12.60
2019-02-28T17:20:24.609Z,12.60
2019-02-28T17:22:52.953Z,12.70
2019-02-28T17:25:21.842Z,12.70
2019-02-28T17:27:59.007Z,12.70
2019-02-28T17:30:52.711Z,12.70
2019-02-28T17:33:20.997Z,12.70
2019-02-28T17:35:49.817Z,12.70
2019-02-28T17:38:17.849Z,12.80
2019-02-28T17:40:46.265Z,12.80
2019-02-28T17:43:14.963Z,12.80
2019-02-28T17:45:43.389Z,12.80
2019-02-28T17:48:25.341Z,12.70
2019-02-28T17:51:10.384Z,12.80
2019-02-28T17:54:04.222Z,12.90
2019-02-28T17:57:16.574Z,12.90
2019-02-28T18:00:08.629Z,12.90
2019-02-28T18:03:02.242Z,12.80
2019-02-28T18:05:55.664Z,12.70
2019-02-28T18:08:50.862Z,12.70
2019-02-28T18:11:49.241Z,12.80
2019-02-28T18:14:43.877Z,12.60
2019-02-28T18:18:05.428Z,12.80
2019-02-28T18:21:07.581Z,12.70
2019-02-28T18:24:22.270Z,12.60
2019-02-28T18:27:39.557Z,12.70
2019-02-28T18:30:47.185Z,12.70
2019-02-28T18:33:19.598Z,12.70
2019-02-28T18:35:47.433Z,12.60
2019-02-28T18:38:15.350Z,12.60
2019-02-28T18:40:43.254Z,12.60
2019-02-28T18:43:10.745Z,12.60
2019-02-28T18:45:38.138Z,12.60
2019-02-28T18:48:05.538Z,12.60
2019-02-28T18:50:32.829Z,12.60
2019-02-28T18:53:00.222Z,12.50
2019-02-28T18:55:34.663Z,12.50
2019-02-28T18:57:56.753Z,12.50
2019-02-28T19:00:24.785Z,12.50
2019-02-28T19:02:52.409Z,12.60
2019-02-28T19:05:19.698Z,12.60
2019-02-28T19:07:46.980Z,12.50
2019-02-28T19:10:15.524Z,12.50
2019-02-28T19:12:43.894Z,12.40
2019-02-28T19:15:12.505Z,12.40
2019-02-28T19:17:41.170Z,12.30
2019-02-28T19:20:10.101Z,12.30
2019-02-28T19:22:38.624Z,12.20
2019-02-28T19:25:06.986Z,12.20
2019-02-28T19:27:35.310Z,12.10
2019-02-28T19:30:08.509Z,12.30
2019-02-28T19:32:36.943Z,12.00
2019-02-28T19:35:05.418Z,12.10
2019-02-28T19:37:33.597Z,12.00
2019-02-28T19:40:01.762Z,12.00
2019-02-28T19:42:29.886Z,11.90
2019-02-28T19:44:59.330Z,12.00
2019-02-28T19:47:27.436Z,12.00
2019-02-28T19:49:55.623Z,11.90
2019-02-28T19:52:24.235Z,11.90
2019-02-28T19:54:52.180Z,11.90
2019-02-28T19:57:20.547Z,11.90
2019-02-28T19:59:48.985Z,12.00
2019-02-28T20:02:17.402Z,12.10
2019-02-28T20:04:45.351Z,12.00
2019-02-28T20:07:14.919Z,12.10
2019-02-28T20:09:43.658Z,12.10
2019-02-28T20:12:12.369Z,12.10
2019-02-28T20:14:41.736Z,12.00
2019-02-28T20:17:10.117Z,12.00
2019-02-28T20:19:38.277Z,11.90
2019-02-28T20:22:06.206Z,11.80
2019-02-28T20:24:34.393Z,11.70
2019-02-28T20:27:02.455Z,11.70
2019-02-28T20:29:30.508Z,11.70
2019-02-28T20:31:58.785Z,11.70
2019-02-28T20:34:29.101Z,11.70
2019-02-28T20:36:58.139Z,11.70
2019-02-28T20:39:26.485Z,11.70
2019-02-28T20:41:56.010Z,11.80
2019-02-28T20:44:24.225Z,11.80
2019-02-28T20:46:53.425Z,11.80
2019-02-28T20:49:21.710Z,11.70
2019-02-28T20:51:55.206Z,11.80
2019-02-28T20:54:20.126Z,11.90
2019-02-28T20:56:48.103Z,11.70
2019-02-28T20:59:16.074Z,11.70
2019-02-28T21:01:44.110Z,11.60
2019-02-28T21:04:12.303Z,11.60
2019-02-28T21:06:41.249Z,11.60
2019-02-28T21:09:11.893Z,11.70
2019-02-28T21:11:39.017Z,11.60
2019-02-28T21:14:06.951Z,11.70
2019-02-28T21:16:35.363Z,11.70
2019-02-28T21:19:03.612Z,11.60
2019-02-28T21:21:31.866Z,11.60
2019-02-28T21:23:59.789Z,11.60
2019-02-28T21:26:27.829Z,11.60
2019-02-28T21:28:55.812Z,11.70
2019-02-28T21:31:23.997Z,11.60
2019-02-28T21:33:51.933Z,11.50
2019-02-28T21:36:20.118Z,11.50
2019-02-28T21:38:48.386Z,11.50
2019-02-28T21:41:17.097Z,11.50
2019-02-28T21:43:45.589Z,11.50
2019-02-28T21:46:13.749Z,11.60
2019-02-28T21:48:42.277Z,11.60
2019-02-28T21:51:10.564Z,11.50
2019-02-28T21:53:39.001Z,11.60
2019-02-28T21:56:07.400Z,11.60
2019-02-28T21:58:36.165Z,11.60
2019-02-28T22:01:04.299Z,11.50
2019-02-28T22:03:32.771Z,11.50
2019-02-28T22:06:01.196Z,11.40
2019-02-28T22:08:29.510Z,11.50
2019-02-28T22:10:58.009Z,11.40
2019-02-28T22:13:26.629Z,11.40
2019-02-28T22:15:54.671Z,11.30
2019-02-28T22:18:23.069Z,11.30
2019-02-28T22:20:51.435Z,11.20
2019-02-28T22:23:19.974Z,11.10
2019-02-28T22:25:48.019Z,11.00
2019-02-28T22:28:16.154Z,11.00
2019-02-28T22:31:03.941Z,10.90
2019-02-28T22:33:42.659Z,10.80
2019-02-28T22:36:13.368Z,10.60
2019-02-28T22:38:41.505Z,10.70
2019-02-28T22:41:09.825Z,10.70
2019-02-28T22:43:38.115Z,10.80
2019-02-28T22:46:06.251Z,10.80
2019-02-28T22:48:34.381Z,10.80
2019-02-28T22:51:02.543Z,10.80
2019-02-28T22:53:30.573Z,10.90
2019-02-28T22:55:58.651Z,10.90
2019-02-28T22:58:27.117Z,10.90
2019-02-28T23:01:02.879Z,10.90
2019-02-28T23:03:31.702Z,11.00
2019-02-28T23:05:59.869Z,10.90
2019-02-28T23:08:28.254Z,10.90
2019-02-28T23:10:56.666Z,10.90
2019-02-28T23:13:24.802Z,10.90
2019-02-28T23:15:53.056Z,11.00
2019-02-28T23:18:21.202Z,10.90
2019-02-28T23:20:49.385Z,10.90
2019-02-28T23:23:17.522Z,10.90
2019-02-28T23:25:45.670Z,10.90
2019-02-28T23:28:21.969Z,10.90
2019-02-28T23:31:20.382Z,10.90
2019-02-28T23:33:48.073Z,10.80
2019-02-28T23:36:15.446Z,11.00
2019-02-28T23:38:42.626Z,11.00
2019-02-28T23:41:09.881Z,11.00
2019-02-28T23:43:37.029Z,10.90
2019-02-28T23:46:05.173Z,10.80
2019-02-28T23:48:33.122Z,10.90
2019-02-28T23:51:01.083Z,10.90
2019-02-28T23:53:29.049Z,10.90
2019-02-28T23:55:57.339Z,11.00
2019-02-28T23:58:25.433Z,10.90
